KSBN

South Bend International Airport

South Bend, Indiana, USA
KSBN 161737Z 1618/1718 21004KT P6SM VCSH OVC015 FM161900 21004KT P6SM VCSH OVC020 FM162000 VRB04KT P6SM OVC035 FM170700 VRB03KT 5SM BR BKN020 FM170900 VRB02KT 3SM BR BKN008
Issued Valid From Valid To
Aug-16 @ 17:37 UTC
(3 hours ago)
Aug-16 @ 18:00 UTC
(2 hours ago)
Aug-17 @ 18:00 UTC
(in 22 hours)
Expired Click to View Aug-16 @ 18:00 to Aug-16 @ 19:00
KSBN 161737Z 1618/1718 21004KT P6SM VCSH OVC015
Wind Visibility Clouds
210° at 4 knots Greater than 6 miles
  • Overcast at 1,500' AGL
Expired Click to View Aug-16 @ 19:00 to Aug-16 @ 20:00
FM161900 21004KT P6SM VCSH OVC020
Wind Visibility Clouds
210° at 4 knots Greater than 6 miles
  • Overcast at 2,000' AGL
From Aug-16 @ 20:00 to Aug-17 @ 07:00
FM162000 VRB04KT P6SM OVC035
Wind Visibility Clouds
Variable at 4 knots Greater than 6 miles
  • Overcast at 3,500' AGL
From Aug-17 @ 07:00 to Aug-17 @ 09:00
FM170700 VRB03KT 5SM BR BKN020
Wind Visibility Clouds Conditions
Variable at 3 knots 5 miles
  • Broken at 2,000' AGL
  • Mist
From Aug-17 @ 09:00 to Aug-17 @ 18:00
FM170900 VRB02KT 3SM BR BKN008
Wind Visibility Clouds Conditions
Variable at 2 knots 3 miles
  • Broken at 800' AGL
  • Mist
KSBN 161737Z 1618/1718 21004KT P6SM VCSH OVC015 FM161900 21004KT P6SM VCSH OVC020 FM162000 VRB04KT P6SM OVC035 FM170700 VRB03KT 5SM BR BKN020 FM170900 VRB02KT 3SM BR BKN008
Issued Aug-16 @ 17:37 UTC
(3 hours ago)
Valid From Aug-16 @ 18:00 UTC
(2 hours ago)
Valid To Aug-17 @ 18:00 UTC
(in 22 hours)
Aug-16 @ 18:00 - Aug-16 @ 19:00
Wind Visibility
210° at 4 knots Greater than 6 miles
Clouds
  • Overcast at 1,500' AGL
Aug-16 @ 19:00 - Aug-16 @ 20:00
Wind Visibility
210° at 4 knots Greater than 6 miles
Clouds
  • Overcast at 2,000' AGL
From Aug-16 @ 20:00 - Aug-17 @ 07:00
Wind Visibility
Variable at 4 knots Greater than 6 miles
Clouds
  • Overcast at 3,500' AGL
From Aug-17 @ 07:00 - Aug-17 @ 09:00
Wind Visibility
Variable at 3 knots 5 miles
Clouds
  • Broken at 2,000' AGL
Conditions
  • Mist
From Aug-17 @ 09:00 - Aug-17 @ 18:00
Wind Visibility
Variable at 2 knots 3 miles
Clouds
  • Broken at 800' AGL
Conditions
  • Mist